Orbital elements of COSMOS 970 DEB
| Launched | 20 December 1977 |
| Flight ended | – |
| Launch site | Tyuratam Missile and Space Center, Kazakhstan (Also known as Baikonur Cosmodrome) |
| Owner | Commonwealth of Independent States (former USSR) |
| NORAD ID | 14442 |
| Date fetched |
Epoch osculation |
Inc. [°] |
Ecc. | RA asc node [hr] |
Arg Peri. [°] |
Mean anom [°] |
Mean motion [rev/day] |
Abs. mag |
| Date fetched |
Epoch osculation |
Inc. [°] |
Ecc. | RA asc node [hr] |
Arg Peri. [°] |
Mean anom [°] |
Mean motion [rev/day] |
Abs. mag |
| 2026 May 03 17:57 | 2026 Apr 30 13:51:55 | 65.3681 | 0.00136 | 14.8426 | 315.4996 | 145.8220 | 13.85827 | – |
| 2026 May 02 17:57 | 2026 Apr 30 13:51:55 | 65.3681 | 0.00136 | 14.8426 | 315.4996 | 145.8220 | 13.85827 | – |
| 2026 May 01 17:56 | 2026 Apr 30 13:51:55 | 65.3681 | 0.00136 | 14.8426 | 315.4996 | 145.8220 | 13.85827 | – |
| 2026 Apr 30 17:56 | 2026 Apr 30 13:51:55 | 65.3681 | 0.00136 | 14.8426 | 315.4996 | 145.8220 | 13.85827 | – |
| 2026 Apr 29 17:57 | 2026 Apr 24 12:14:45 | 65.3676 | 0.00128 | 15.8787 | 319.6660 | 145.8220 | 13.85827 | – |
| 2026 Apr 28 17:56 | 2026 Apr 24 12:14:45 | 65.3676 | 0.00128 | 15.8787 | 319.6660 | 145.8220 | 13.85827 | – |
| 2026 Apr 27 17:58 | 2026 Apr 24 12:14:45 | 65.3676 | 0.00128 | 15.8787 | 319.6660 | 145.8220 | 13.85827 | – |
| 2026 Apr 26 17:58 | 2026 Apr 24 12:14:45 | 65.3676 | 0.00128 | 15.8787 | 319.6660 | 145.8220 | 13.85827 | – |
| 2026 Apr 25 17:58 | 2026 Apr 24 12:14:45 | 65.3676 | 0.00128 | 15.8787 | 319.6660 | 145.8220 | 13.85827 | – |
| 2026 Apr 24 17:59 | 2026 Apr 24 12:14:45 | 65.3676 | 0.00128 | 15.8787 | 319.6660 | 145.8220 | 13.85827 | – |
| 2026 Apr 23 17:57 | 2026 Apr 18 16:02:43 | 65.3670 | 0.00121 | 16.8762 | 323.8390 | 145.8220 | 13.85827 | – |
| 2026 Apr 22 17:57 | 2026 Apr 18 16:02:43 | 65.3670 | 0.00121 | 16.8762 | 323.8390 | 145.8220 | 13.85827 | – |
| 2026 Apr 21 17:57 | 2026 Apr 18 16:02:43 | 65.3670 | 0.00121 | 16.8762 | 323.8390 | 145.8220 | 13.85827 | – |
| 2026 Apr 20 17:57 | 2026 Apr 18 16:02:43 | 65.3670 | 0.00121 | 16.8762 | 323.8390 | 145.8220 | 13.85827 | – |
| 2026 Apr 19 17:58 | 2026 Apr 18 16:02:43 | 65.3670 | 0.00121 | 16.8762 | 323.8390 | 145.8220 | 13.85827 | – |
| 2026 Apr 18 17:56 | 2026 Apr 12 21:46:09 | 65.3678 | 0.00118 | 17.8600 | 327.9917 | 145.8220 | 13.85827 | – |
| 2026 Apr 16 17:57 | 2026 Apr 12 21:46:09 | 65.3678 | 0.00118 | 17.8600 | 327.9917 | 145.8220 | 13.85827 | – |
| 2026 Apr 14 17:57 | 2026 Apr 12 21:46:09 | 65.3678 | 0.00118 | 17.8600 | 327.9917 | 145.8220 | 13.85827 | – |
| 2026 Apr 13 17:57 | 2026 Apr 12 21:46:09 | 65.3678 | 0.00118 | 17.8600 | 327.9917 | 145.8220 | 13.85827 | – |
| 2026 Apr 12 17:57 | 2026 Apr 08 15:12:22 | 65.3686 | 0.00116 | 18.5897 | 330.3849 | 145.8220 | 13.85827 | – |
| 2026 Apr 11 17:57 | 2026 Apr 08 15:12:22 | 65.3686 | 0.00116 | 18.5897 | 330.3849 | 145.8220 | 13.85827 | – |
| 2026 Apr 10 17:58 | 2026 Apr 08 15:12:22 | 65.3686 | 0.00116 | 18.5897 | 330.3849 | 145.8220 | 13.85827 | – |
| 2026 Apr 09 18:01 | 2026 Apr 08 15:12:22 | 65.3686 | 0.00116 | 18.5897 | 330.3849 | 145.8220 | 13.85827 | – |
| 2026 Apr 08 17:57 | 2026 Apr 08 15:12:22 | 65.3686 | 0.00116 | 18.5897 | 330.3849 | 145.8220 | 13.85827 | – |
| 2026 Apr 07 17:57 | 2026 Apr 01 22:16:14 | 65.3683 | 0.00115 | 19.7347 | 333.0031 | 145.8220 | 13.85827 | – |
| 2026 Apr 06 17:57 | 2026 Apr 01 22:16:14 | 65.3683 | 0.00115 | 19.7347 | 333.0031 | 145.8220 | 13.85827 | – |